createdAt,value
2022-08-14T00:02:27.691Z,17.74
2022-08-14T00:04:59.324Z,17.77
2022-08-14T00:07:27.970Z,17.75
2022-08-14T00:10:49.154Z,17.75
2022-08-14T00:12:56.931Z,17.74
2022-08-14T00:15:43.322Z,17.73
2022-08-14T00:18:30.855Z,17.71
2022-08-14T00:21:04.951Z,17.70
2022-08-14T00:23:40.766Z,17.67
2022-08-14T00:26:21.929Z,17.65
2022-08-14T00:28:52.824Z,17.64
2022-08-14T00:31:30.854Z,17.62
2022-08-14T00:34:36.831Z,17.60
2022-08-14T00:36:53.940Z,17.59
2022-08-14T00:39:21.881Z,17.54
2022-08-14T00:41:50.011Z,17.56
2022-08-14T00:44:21.379Z,17.53
2022-08-14T00:46:58.795Z,17.53
2022-08-14T00:49:30.166Z,17.52
2022-08-14T00:52:01.339Z,17.52
2022-08-14T00:54:29.072Z,17.52
2022-08-14T00:56:57.054Z,17.53
2022-08-14T00:59:27.547Z,17.53
2022-08-14T01:02:00.116Z,17.54
2022-08-14T01:04:37.743Z,17.57
2022-08-14T01:07:22.316Z,17.61
2022-08-14T01:09:53.945Z,17.63
2022-08-14T01:12:27.086Z,17.64
2022-08-14T01:15:00.168Z,17.65
2022-08-14T01:17:52.080Z,17.68
2022-08-14T01:20:41.132Z,17.71
2022-08-14T01:23:16.219Z,17.72
2022-08-14T01:25:49.065Z,17.72
2022-08-14T01:28:46.470Z,17.73
2022-08-14T01:31:12.508Z,17.76
2022-08-14T01:35:15.699Z,17.77
2022-08-14T01:36:39.367Z,17.80
2022-08-14T01:39:12.636Z,17.83
2022-08-14T01:41:43.923Z,17.87
2022-08-14T01:44:31.973Z,17.92
2022-08-14T01:47:21.358Z,17.93
2022-08-14T01:49:59.612Z,17.99
2022-08-14T01:52:59.900Z,18.02
2022-08-14T01:55:31.968Z,18.07
2022-08-14T01:58:19.442Z,18.10
2022-08-14T02:00:55.400Z,18.10
2022-08-14T02:03:30.945Z,18.10
2022-08-14T02:06:03.906Z,18.08
2022-08-14T02:08:53.248Z,18.08
2022-08-14T02:11:24.925Z,18.08
2022-08-14T02:14:07.431Z,18.07
2022-08-14T02:16:39.523Z,18.07
2022-08-14T02:19:10.571Z,18.10
2022-08-14T02:21:43.772Z,18.17
2022-08-14T02:24:40.162Z,18.26
2022-08-14T02:28:25.440Z,18.36
2022-08-14T02:30:00.636Z,18.40
2022-08-14T02:32:37.276Z,18.40
2022-08-14T02:35:11.548Z,18.38
2022-08-14T02:37:48.115Z,18.35
2022-08-14T02:40:32.343Z,18.31
2022-08-14T02:43:03.869Z,18.30
2022-08-14T02:45:38.886Z,18.28
2022-08-14T02:49:04.487Z,18.27
2022-08-14T02:51:05.453Z,18.26
2022-08-14T02:53:35.201Z,18.25
2022-08-14T02:56:30.076Z,18.24
2022-08-14T02:58:55.775Z,18.22
2022-08-14T03:01:31.527Z,18.22
2022-08-14T03:04:17.639Z,18.20
2022-08-14T03:06:57.888Z,18.18
2022-08-14T03:10:27.073Z,18.17
2022-08-14T03:12:31.063Z,18.15
2022-08-14T03:15:13.814Z,18.15
2022-08-14T03:17:56.583Z,18.14
2022-08-14T03:20:30.446Z,18.13
2022-08-14T03:23:03.217Z,18.12
2022-08-14T03:25:34.282Z,18.12
2022-08-14T03:28:07.071Z,18.12
2022-08-14T03:30:39.498Z,18.11
2022-08-14T03:33:11.612Z,18.11
2022-08-14T03:36:00.073Z,18.11
2022-08-14T03:39:22.084Z,18.11
2022-08-14T03:41:19.557Z,18.10
2022-08-14T03:44:01.487Z,18.10
2022-08-14T03:46:52.256Z,18.10
2022-08-14T03:49:24.255Z,18.11
2022-08-14T03:51:57.450Z,18.11
2022-08-14T03:54:25.923Z,18.11
2022-08-14T03:56:54.776Z,18.12
2022-08-14T03:59:22.571Z,18.12
2022-08-14T04:02:01.398Z,18.13
2022-08-14T04:04:31.490Z,18.13
2022-08-14T04:07:00.550Z,18.13
2022-08-14T04:09:28.919Z,18.13
2022-08-14T04:11:58.003Z,18.14
2022-08-14T04:14:29.081Z,18.15
2022-08-14T04:16:57.243Z,18.17
2022-08-14T04:19:28.065Z,18.19
2022-08-14T04:22:02.363Z,18.20
2022-08-14T04:24:38.151Z,18.22
2022-08-14T04:27:09.469Z,18.24
2022-08-14T04:29:44.981Z,18.26
2022-08-14T04:33:10.696Z,18.27
2022-08-14T04:35:01.517Z,18.29
2022-08-14T04:37:54.295Z,18.30
2022-08-14T04:40:40.853Z,18.29
2022-08-14T04:43:38.166Z,18.29
2022-08-14T04:46:54.618Z,18.29
2022-08-14T04:49:00.248Z,18.29
2022-08-14T04:51:30.143Z,18.31
2022-08-14T04:54:16.614Z,18.28
2022-08-14T04:56:45.327Z,18.33
2022-08-14T04:59:13.365Z,18.38
2022-08-14T05:01:47.702Z,18.43
2022-08-14T05:04:20.242Z,18.49
2022-08-14T05:06:53.552Z,18.56
2022-08-14T05:09:24.237Z,18.60
2022-08-14T05:11:52.994Z,18.65
2022-08-14T05:14:45.674Z,18.67
2022-08-14T05:17:11.877Z,18.69
2022-08-14T05:19:44.647Z,18.71
2022-08-14T05:22:28.206Z,18.72
2022-08-14T05:24:55.936Z,18.73
2022-08-14T05:27:24.159Z,18.72
2022-08-14T05:29:55.393Z,18.71
2022-08-14T05:32:27.535Z,18.71
2022-08-14T05:34:58.744Z,18.71
2022-08-14T05:37:28.337Z,18.74
2022-08-14T05:40:00.568Z,18.77
2022-08-14T05:42:31.882Z,18.81
2022-08-14T05:45:05.618Z,18.85
2022-08-14T05:47:41.022Z,18.89
2022-08-14T05:50:17.581Z,18.91
2022-08-14T05:52:51.468Z,18.92
2022-08-14T05:55:22.125Z,18.93
2022-08-14T05:57:52.605Z,18.95
2022-08-14T06:00:28.192Z,18.96
2022-08-14T06:02:59.914Z,18.98
2022-08-14T06:05:29.459Z,18.96
2022-08-14T06:07:58.897Z,18.96
2022-08-14T06:10:28.969Z,18.99
2022-08-14T06:12:58.488Z,19.00
2022-08-14T06:15:30.598Z,19.02
2022-08-14T06:18:00.196Z,19.04
2022-08-14T06:20:30.203Z,19.06
2022-08-14T06:22:59.292Z,19.07
2022-08-14T06:25:27.912Z,19.08
2022-08-14T06:27:55.961Z,19.12
2022-08-14T06:30:45.975Z,19.14
2022-08-14T06:33:19.005Z,19.15
2022-08-14T06:35:47.991Z,19.18
2022-08-14T06:38:23.236Z,19.23
2022-08-14T06:40:53.316Z,19.25
2022-08-14T06:43:24.954Z,19.26
2022-08-14T06:45:57.163Z,19.29
2022-08-14T06:48:25.318Z,19.35
2022-08-14T06:50:54.583Z,19.38
2022-08-14T06:53:27.890Z,19.40
2022-08-14T06:56:00.615Z,19.46
2022-08-14T06:58:31.853Z,19.47
2022-08-14T07:01:27.573Z,19.43
2022-08-14T07:04:23.836Z,19.44
2022-08-14T07:06:55.510Z,19.45
2022-08-14T07:09:40.409Z,19.45
2022-08-14T07:12:35.032Z,19.48
2022-08-14T07:15:01.775Z,19.51
2022-08-14T07:17:31.989Z,19.55
2022-08-14T07:20:02.533Z,19.63
2022-08-14T07:22:32.717Z,19.76
2022-08-14T07:25:18.207Z,20.01
2022-08-14T07:27:47.931Z,20.22
2022-08-14T07:30:34.156Z,20.32
2022-08-14T07:33:04.094Z,20.31
2022-08-14T07:35:42.909Z,20.33
2022-08-14T07:38:22.689Z,20.33
2022-08-14T07:40:53.089Z,20.32
2022-08-14T07:43:23.005Z,20.32
2022-08-14T07:45:53.932Z,20.35
2022-08-14T07:48:25.480Z,20.40
2022-08-14T07:51:02.121Z,20.40
2022-08-14T07:53:34.213Z,20.34
2022-08-14T07:56:22.095Z,20.29
2022-08-14T07:58:58.552Z,20.26
2022-08-14T08:01:29.979Z,20.28
2022-08-14T08:04:01.452Z,20.30
2022-08-14T08:06:31.230Z,20.38
2022-08-14T08:09:02.880Z,20.47
2022-08-14T08:11:34.902Z,20.52
2022-08-14T08:14:10.326Z,20.57
2022-08-14T08:16:38.616Z,20.56
2022-08-14T08:19:12.855Z,20.51
2022-08-14T08:21:43.899Z,20.42
2022-08-14T08:24:18.586Z,20.37
2022-08-14T08:26:50.483Z,20.34
2022-08-14T08:29:28.248Z,20.34
2022-08-14T08:32:01.712Z,20.34
2022-08-14T08:34:45.962Z,20.40
2022-08-14T08:37:14.766Z,20.52
2022-08-14T08:40:02.016Z,20.61
2022-08-14T08:42:38.591Z,20.65
2022-08-14T08:45:21.974Z,20.60
2022-08-14T08:47:51.434Z,20.61
2022-08-14T08:50:31.273Z,20.69
2022-08-14T08:53:02.535Z,20.75
2022-08-14T08:55:36.685Z,20.80
2022-08-14T08:58:16.595Z,20.84
2022-08-14T09:00:50.307Z,20.91
2022-08-14T09:03:27.512Z,20.99
2022-08-14T09:06:03.076Z,21.03
2022-08-14T09:08:35.791Z,21.11
2022-08-14T09:11:19.947Z,21.21
2022-08-14T09:13:50.953Z,21.25
2022-08-14T09:16:23.597Z,21.34
2022-08-14T09:18:53.980Z,21.50
2022-08-14T09:21:24.099Z,21.62
2022-08-14T09:24:29.009Z,21.63
2022-08-14T09:26:44.191Z,21.64
2022-08-14T09:29:22.702Z,21.63
2022-08-14T09:31:57.017Z,21.73
2022-08-14T09:34:59.022Z,21.85
2022-08-14T09:37:55.394Z,21.99
2022-08-14T09:40:37.221Z,22.14
2022-08-14T09:43:26.422Z,22.35
2022-08-14T09:45:58.385Z,22.41
2022-08-14T09:48:30.825Z,22.46
2022-08-14T09:54:12.693Z,22.43
2022-08-14T09:56:56.487Z,22.65
2022-08-14T09:59:25.501Z,22.64
2022-08-14T10:01:56.274Z,22.65
2022-08-14T10:04:33.704Z,22.67
2022-08-14T10:07:05.343Z,22.72
2022-08-14T10:09:35.077Z,22.82
2022-08-14T10:12:05.031Z,22.89
2022-08-14T10:14:36.644Z,22.84
2022-08-14T10:17:08.372Z,22.85
2022-08-14T10:19:48.319Z,22.85
2022-08-14T10:23:12.191Z,22.88
2022-08-14T10:25:17.529Z,22.90
2022-08-14T10:27:51.123Z,22.90
2022-08-14T10:30:36.508Z,22.99
2022-08-14T10:33:04.249Z,23.06
2022-08-14T10:35:42.417Z,23.08
2022-08-14T10:38:33.174Z,23.08
2022-08-14T10:41:13.502Z,23.03
2022-08-14T10:43:42.805Z,22.98
2022-08-14T10:47:37.206Z,22.87
2022-08-14T10:49:15.957Z,22.85
2022-08-14T10:51:44.431Z,22.87
2022-08-14T10:54:34.946Z,22.89
2022-08-14T10:57:25.232Z,22.89
2022-08-14T11:00:01.025Z,22.91
2022-08-14T11:02:44.835Z,23.05
2022-08-14T11:05:23.681Z,23.13
2022-08-14T11:07:56.456Z,23.14
2022-08-14T11:11:02.153Z,23.25
2022-08-14T11:13:31.951Z,23.38
2022-08-14T11:16:01.666Z,23.47
2022-08-14T11:18:35.923Z,23.61
2022-08-14T11:21:10.526Z,23.79
2022-08-14T11:23:41.208Z,23.96
2022-08-14T11:26:19.309Z,24.15
2022-08-14T11:28:49.799Z,24.27
2022-08-14T11:31:24.186Z,24.29
2022-08-14T11:33:59.350Z,24.20
2022-08-14T11:37:02.094Z,24.19
2022-08-14T11:39:33.279Z,24.15
2022-08-14T11:42:55.533Z,24.16
2022-08-14T11:45:00.845Z,24.16
2022-08-14T11:47:35.161Z,24.20
2022-08-14T11:50:33.857Z,24.28
2022-08-14T11:53:07.871Z,24.33
2022-08-14T11:55:40.961Z,24.37
2022-08-14T11:58:10.988Z,24.47
2022-08-14T12:00:49.174Z,24.52
2022-08-14T12:03:19.954Z,24.46
2022-08-14T12:06:05.485Z,24.36
2022-08-14T12:08:38.665Z,24.25
2022-08-14T12:11:11.261Z,24.18
2022-08-14T12:13:44.424Z,24.13
2022-08-14T12:16:23.765Z,24.10
2022-08-14T12:18:51.452Z,24.15
2022-08-14T12:21:25.510Z,24.23
2022-08-14T12:24:09.025Z,24.31
2022-08-14T12:26:57.894Z,24.52
2022-08-14T12:29:26.769Z,24.73
2022-08-14T12:32:00.517Z,24.89
2022-08-14T12:34:34.629Z,24.93
2022-08-14T12:37:05.815Z,24.92
2022-08-14T12:39:39.715Z,24.89
2022-08-14T12:42:08.378Z,24.83
2022-08-14T12:44:42.991Z,24.77
2022-08-14T12:47:17.016Z,24.68
2022-08-14T12:50:00.246Z,24.59
2022-08-14T12:52:58.685Z,24.54
2022-08-14T12:55:32.615Z,24.56
2022-08-14T12:58:35.197Z,24.69
2022-08-14T13:01:17.164Z,24.85
2022-08-14T13:03:51.757Z,24.93
2022-08-14T13:06:24.533Z,24.88
2022-08-14T13:08:53.926Z,24.83
2022-08-14T13:11:58.967Z,24.82
2022-08-14T13:14:38.439Z,24.84
2022-08-14T13:17:07.591Z,24.83
2022-08-14T13:19:40.942Z,24.82
2022-08-14T13:22:09.672Z,24.78
2022-08-14T13:24:39.627Z,24.76
2022-08-14T13:27:09.859Z,24.73
2022-08-14T13:29:46.819Z,24.76
2022-08-14T13:32:16.316Z,24.81
2022-08-14T13:34:47.810Z,24.86
2022-08-14T13:37:17.293Z,24.88
2022-08-14T13:39:57.491Z,24.86
2022-08-14T13:42:30.550Z,24.89
2022-08-14T13:45:02.085Z,24.87
2022-08-14T13:47:33.243Z,24.83
2022-08-14T13:50:04.678Z,24.82
2022-08-14T13:52:59.250Z,24.84
2022-08-14T13:55:30.096Z,24.88
2022-08-14T13:58:03.302Z,24.89
2022-08-14T14:00:53.228Z,24.91
2022-08-14T14:03:24.403Z,24.97
2022-08-14T14:05:54.868Z,25.03
2022-08-14T14:08:45.751Z,25.07
2022-08-14T14:11:16.454Z,25.11
2022-08-14T14:13:46.415Z,25.17
2022-08-14T14:16:26.649Z,25.30
2022-08-14T14:19:09.489Z,25.39
2022-08-14T14:21:40.340Z,25.21
2022-08-14T14:24:14.872Z,25.03
2022-08-14T14:26:46.557Z,24.87
2022-08-14T14:29:14.975Z,24.77
2022-08-14T14:31:49.357Z,24.73
2022-08-14T14:34:29.115Z,24.76
2022-08-14T14:37:04.635Z,24.85
2022-08-14T14:39:35.161Z,24.93
2022-08-14T14:42:09.249Z,24.96
2022-08-14T14:44:42.367Z,24.97
2022-08-14T14:47:12.805Z,24.99
2022-08-14T14:49:54.461Z,24.97
2022-08-14T14:52:27.799Z,24.91
2022-08-14T14:54:58.687Z,24.85
2022-08-14T14:57:34.907Z,24.78
2022-08-14T15:00:12.649Z,24.74
2022-08-14T15:02:53.440Z,24.73
2022-08-14T15:05:28.403Z,24.72
2022-08-14T15:07:57.893Z,24.69
2022-08-14T15:10:34.259Z,24.71
2022-08-14T15:13:07.254Z,24.77
2022-08-14T15:15:36.928Z,24.87
2022-08-14T15:18:09.878Z,25.01
2022-08-14T15:20:56.219Z,25.13
2022-08-14T15:23:43.736Z,25.25
2022-08-14T15:26:24.146Z,25.28
2022-08-14T15:29:03.197Z,25.19
2022-08-14T15:31:37.013Z,25.11
2022-08-14T15:34:43.056Z,25.02
2022-08-14T15:37:00.160Z,24.93
2022-08-14T15:39:29.394Z,24.86
2022-08-14T15:42:03.030Z,24.77
2022-08-14T15:44:36.697Z,24.72
2022-08-14T15:47:15.097Z,24.69
2022-08-14T15:49:56.314Z,24.68
2022-08-14T15:52:32.675Z,24.66
2022-08-14T15:55:09.564Z,24.66
2022-08-14T15:57:37.654Z,24.66
2022-08-14T16:00:40.467Z,24.65
2022-08-14T16:03:15.674Z,24.68
2022-08-14T16:05:46.018Z,24.68
2022-08-14T16:08:27.191Z,24.68
2022-08-14T16:11:03.601Z,24.70
2022-08-14T16:13:39.690Z,24.71
2022-08-14T16:16:49.178Z,24.70
2022-08-14T16:19:10.019Z,24.65
2022-08-14T16:22:01.296Z,24.61
2022-08-14T16:24:33.512Z,24.58
2022-08-14T16:27:03.465Z,24.56
2022-08-14T16:29:35.850Z,24.53
2022-08-14T16:32:33.007Z,24.50
2022-08-14T16:34:55.916Z,24.46
2022-08-14T16:37:33.953Z,24.41
2022-08-14T16:40:03.386Z,24.38
2022-08-14T16:43:03.487Z,24.35
2022-08-14T16:45:24.268Z,24.32
2022-08-14T16:47:52.202Z,24.30
2022-08-14T16:50:40.529Z,24.28
2022-08-14T16:53:09.541Z,24.26
2022-08-14T16:55:53.601Z,24.23
2022-08-14T16:58:27.003Z,24.18
2022-08-14T17:01:16.390Z,24.16
2022-08-14T17:04:04.850Z,24.12
2022-08-14T17:06:50.695Z,24.08
2022-08-14T17:09:43.624Z,24.04
2022-08-14T17:12:35.142Z,24.00
2022-08-14T17:15:10.129Z,23.96
2022-08-14T17:17:38.917Z,23.90
2022-08-14T17:20:44.419Z,23.85
2022-08-14T17:23:10.802Z,23.78
2022-08-14T17:25:39.060Z,23.72
2022-08-14T17:28:52.427Z,23.65
2022-08-14T17:31:06.478Z,23.56
2022-08-14T17:33:44.232Z,23.47
2022-08-14T17:36:21.793Z,23.39
2022-08-14T17:39:20.521Z,23.30
2022-08-14T17:44:46.219Z,23.13
2022-08-14T17:47:18.226Z,23.07
2022-08-14T17:49:52.023Z,23.01
2022-08-14T17:52:34.488Z,22.96
2022-08-14T17:55:06.496Z,22.87
2022-08-14T17:57:40.991Z,22.80
2022-08-14T18:00:15.502Z,22.74
2022-08-14T18:02:51.202Z,22.66
2022-08-14T18:06:07.510Z,22.60
2022-08-14T18:08:32.524Z,22.53
2022-08-14T18:11:00.325Z,22.46
2022-08-14T18:13:51.480Z,22.39
2022-08-14T18:16:20.665Z,22.35
2022-08-14T18:18:51.108Z,22.33
2022-08-14T18:21:42.513Z,22.30
2022-08-14T18:24:20.398Z,22.25
2022-08-14T18:27:14.911Z,22.21
2022-08-14T18:29:58.664Z,22.17
2022-08-14T18:32:32.096Z,22.10
2022-08-14T18:35:11.430Z,22.05
2022-08-14T18:37:42.635Z,21.99
2022-08-14T18:40:34.325Z,21.93
2022-08-14T18:43:03.605Z,21.89
2022-08-14T18:45:34.273Z,21.83
2022-08-14T18:48:19.060Z,21.75
2022-08-14T18:50:57.165Z,21.68
2022-08-14T18:53:25.539Z,21.59
2022-08-14T18:56:10.010Z,21.51
2022-08-14T18:58:57.183Z,21.47
2022-08-14T19:01:33.357Z,21.41
2022-08-14T19:04:02.222Z,21.35
2022-08-14T19:06:37.358Z,21.28
2022-08-14T19:09:05.430Z,21.22
2022-08-14T19:11:34.323Z,21.16
2022-08-14T19:14:04.891Z,21.12
2022-08-14T19:16:43.070Z,21.06
2022-08-14T19:19:17.250Z,21.01
2022-08-14T19:21:56.230Z,20.98
2022-08-14T19:24:35.944Z,20.94
2022-08-14T19:27:24.192Z,20.87
2022-08-14T19:30:19.776Z,20.81
2022-08-14T19:32:53.186Z,20.75
2022-08-14T19:35:49.942Z,20.71
2022-08-14T19:38:54.278Z,20.66
2022-08-14T19:41:34.499Z,20.60
2022-08-14T19:44:19.259Z,20.53
2022-08-14T19:47:01.938Z,20.51
2022-08-14T19:50:25.093Z,20.62
2022-08-14T19:52:37.315Z,20.73
2022-08-14T19:55:15.415Z,20.84
2022-08-14T19:57:43.046Z,20.95
2022-08-14T20:00:29.571Z,21.07
2022-08-14T20:03:12.021Z,21.17
2022-08-14T20:05:46.268Z,21.27
2022-08-14T20:10:58.597Z,21.34
2022-08-14T20:11:41.639Z,21.39
2022-08-14T20:14:01.193Z,21.42
2022-08-14T20:16:36.221Z,21.40
2022-08-14T20:19:13.415Z,21.37
2022-08-14T20:22:34.681Z,21.35
2022-08-14T20:24:54.101Z,21.31
2022-08-14T20:27:33.857Z,21.26
2022-08-14T20:30:29.821Z,21.20
2022-08-14T20:33:07.897Z,21.13
2022-08-14T20:35:39.233Z,21.07
2022-08-14T20:38:31.189Z,21.00
2022-08-14T20:40:57.780Z,20.90
2022-08-14T20:43:47.946Z,20.82
2022-08-14T20:46:29.959Z,20.75
2022-08-14T20:49:09.656Z,20.71
2022-08-14T20:51:54.511Z,20.68
2022-08-14T20:54:33.879Z,20.65
2022-08-14T20:57:14.054Z,20.62
2022-08-14T20:59:48.726Z,20.63
2022-08-14T21:02:49.850Z,20.67
2022-08-14T21:05:22.559Z,20.72
2022-08-14T21:08:08.384Z,20.74
2022-08-14T21:10:53.194Z,20.76
2022-08-14T21:14:08.915Z,20.73
2022-08-14T21:16:33.037Z,20.72
2022-08-14T21:19:04.135Z,20.71
2022-08-14T21:21:40.729Z,20.66
2022-08-14T21:24:39.254Z,20.66
2022-08-14T21:27:12.055Z,20.63
2022-08-14T21:29:53.927Z,20.56
2022-08-14T21:32:50.557Z,20.59
2022-08-14T21:35:41.667Z,20.49
2022-08-14T21:38:18.336Z,20.51
2022-08-14T21:40:48.799Z,20.49
2022-08-14T21:43:23.040Z,20.48
2022-08-14T21:45:56.177Z,20.49
2022-08-14T21:48:30.026Z,20.50
2022-08-14T21:51:52.923Z,20.49
2022-08-14T21:53:59.279Z,20.48
2022-08-14T21:56:38.946Z,20.46
2022-08-14T21:59:24.696Z,20.45
2022-08-14T22:02:32.921Z,20.43
2022-08-14T22:05:16.062Z,20.41
2022-08-14T22:07:58.325Z,20.33
2022-08-14T22:10:34.760Z,20.26
2022-08-14T22:13:05.271Z,20.23
2022-08-14T22:15:33.360Z,20.16
2022-08-14T22:18:20.733Z,20.11
2022-08-14T22:20:56.865Z,20.06
2022-08-14T22:23:27.245Z,20.01
2022-08-14T22:25:57.304Z,19.96
2022-08-14T22:28:38.916Z,19.93
2022-08-14T22:31:22.110Z,19.84
2022-08-14T22:33:58.079Z,19.85
2022-08-14T22:36:49.182Z,19.80
2022-08-14T22:40:17.021Z,19.78
2022-08-14T22:42:36.023Z,19.76
2022-08-14T22:45:09.873Z,19.68
2022-08-14T22:47:42.730Z,19.69
2022-08-14T22:50:30.779Z,19.66
2022-08-14T22:53:13.595Z,19.63
2022-08-14T22:55:47.372Z,19.51
2022-08-14T22:58:31.564Z,19.53
2022-08-14T23:01:11.102Z,19.48
2022-08-14T23:03:51.432Z,19.39
2022-08-14T23:07:04.423Z,19.39
2022-08-14T23:09:36.530Z,19.35
2022-08-14T23:12:28.833Z,19.32
2022-08-14T23:15:06.208Z,19.37
2022-08-14T23:17:40.633Z,19.30
2022-08-14T23:20:19.783Z,19.33
2022-08-14T23:22:51.516Z,19.32
2022-08-14T23:25:57.624Z,19.28
2022-08-14T23:28:34.674Z,19.27
2022-08-14T23:31:14.151Z,19.23
2022-08-14T23:33:52.144Z,19.21
2022-08-14T23:36:31.800Z,19.18
2022-08-14T23:39:12.337Z,19.14
2022-08-14T23:41:53.840Z,19.10
2022-08-14T23:44:35.751Z,19.01
2022-08-14T23:47:12.094Z,18.97
2022-08-14T23:50:03.551Z,18.97
2022-08-14T23:53:06.608Z,18.91
2022-08-14T23:55:35.582Z,18.85
2022-08-14T23:58:10.488Z,18.79
